createdAt,value
2022-09-14T00:03:13.487Z,4.23
2022-09-14T00:13:17.388Z,4.35
2022-09-14T00:23:19.016Z,3.30
2022-09-14T00:33:21.719Z,5.23
2022-09-14T00:43:23.603Z,3.33
2022-09-14T00:53:25.526Z,3.57
2022-09-14T01:03:37.257Z,3.07
2022-09-14T01:13:55.541Z,2.78
2022-09-14T01:24:06.510Z,3.45
2022-09-14T01:34:19.856Z,3.63
2022-09-14T01:44:35.789Z,3.30
2022-09-14T01:54:49.485Z,3.08
2022-09-14T02:05:06.087Z,4.05
2022-09-14T02:15:11.291Z,3.50
2022-09-14T02:25:13.176Z,3.80
2022-09-14T02:35:32.676Z,4.70
2022-09-14T02:45:55.742Z,5.57
2022-09-14T02:56:02.824Z,6.05
2022-09-14T03:06:05.812Z,5.43
2022-09-14T03:16:13.773Z,4.60
2022-09-14T03:26:23.211Z,4.80
2022-09-14T03:36:27.682Z,4.95
2022-09-14T03:46:35.134Z,4.82
2022-09-14T03:56:37.261Z,5.35
2022-09-14T04:06:38.954Z,5.80
2022-09-14T04:16:41.954Z,5.25
2022-09-14T04:26:45.587Z,5.57
2022-09-14T04:36:47.232Z,5.97
2022-09-14T04:46:52.589Z,4.75
2022-09-14T04:56:57.294Z,4.70
2022-09-14T05:06:58.937Z,5.53
2022-09-14T05:17:05.602Z,5.25
2022-09-14T05:27:07.265Z,5.47
2022-09-14T05:37:15.051Z,4.33
2022-09-14T05:47:16.833Z,5.15
2022-09-14T05:57:18.473Z,4.73
2022-09-14T06:07:20.142Z,5.17
2022-09-14T06:17:32.067Z,4.37
2022-09-14T06:27:36.858Z,4.67
2022-09-14T06:37:41.590Z,4.88
2022-09-14T06:47:43.285Z,4.55
2022-09-14T06:57:52.266Z,4.80
2022-09-14T07:07:54.122Z,5.45
2022-09-14T07:17:55.900Z,6.20
2022-09-14T07:27:57.580Z,6.83
2022-09-14T07:38:02.215Z,7.13
2022-09-14T07:48:04.701Z,7.70
2022-09-14T07:58:06.719Z,7.07
2022-09-14T08:08:08.370Z,6.75
2022-09-14T08:18:11.223Z,6.97
2022-09-14T08:28:15.465Z,6.70
2022-09-14T08:38:17.759Z,7.18
2022-09-14T08:48:37.954Z,8.02
2022-09-14T08:59:21.805Z,6.57
2022-09-14T09:09:29.377Z,6.18
2022-09-14T09:19:43.985Z,5.25
2022-09-14T09:29:45.752Z,6.63
2022-09-14T09:39:57.066Z,6.22
2022-09-14T09:50:01.906Z,7.40
2022-09-14T10:00:28.192Z,7.15
2022-09-14T10:10:45.360Z,6.45
2022-09-14T10:21:02.726Z,7.47
2022-09-14T10:31:18.341Z,6.22
2022-09-14T10:41:35.385Z,6.28
2022-09-14T10:52:16.768Z,7.20
2022-09-14T11:02:47.311Z,6.63
2022-09-14T11:13:14.093Z,6.07
2022-09-14T11:23:26.649Z,6.07
2022-09-14T11:33:38.272Z,5.97
2022-09-14T11:43:57.890Z,6.38
2022-09-14T11:53:59.778Z,5.43
2022-09-14T12:04:01.482Z,8.38
2022-09-14T12:14:21.645Z,5.15
2022-09-14T12:24:23.544Z,4.53
2022-09-14T12:34:28.138Z,5.45
2022-09-14T12:44:33.589Z,3.17
2022-09-14T12:55:17.464Z,3.35
2022-09-14T13:05:29.844Z,3.25
2022-09-14T13:15:45.520Z,3.28
2022-09-14T13:25:47.317Z,2.70
2022-09-14T13:35:58.016Z,3.00
2022-09-14T13:46:02.425Z,3.53
2022-09-14T13:56:24.476Z,4.22
2022-09-14T14:06:29.485Z,5.65
2022-09-14T14:16:32.374Z,3.13
2022-09-14T14:26:36.225Z,3.58
2022-09-14T14:36:42.091Z,4.05
2022-09-14T14:46:46.829Z,3.90
2022-09-14T14:56:50.174Z,2.78
2022-09-14T15:06:52.529Z,3.58
2022-09-14T15:16:59.925Z,2.97
2022-09-14T15:27:02.844Z,3.15
2022-09-14T15:37:05.577Z,3.47
2022-09-14T15:47:07.354Z,2.95
2022-09-14T15:57:11.990Z,2.75
2022-09-14T16:07:14.316Z,2.83
2022-09-14T16:17:15.903Z,2.95
2022-09-14T16:27:17.511Z,2.83
2022-09-14T16:37:23.006Z,2.75
2022-09-14T16:47:25.904Z,5.25
2022-09-14T16:57:29.867Z,3.38
2022-09-14T17:07:31.463Z,5.72
2022-09-14T17:17:33.375Z,8.27
2022-09-14T17:27:35.071Z,5.88
2022-09-14T17:37:36.715Z,9.77
2022-09-14T17:47:38.990Z,8.57
2022-09-14T17:57:40.657Z,6.72
2022-09-14T18:07:42.563Z,8.73
2022-09-14T18:17:46.050Z,11.93
2022-09-14T18:27:51.319Z,8.32
2022-09-14T18:37:56.470Z,15.57
2022-09-14T18:48:00.595Z,11.75
2022-09-14T18:58:04.915Z,12.07
2022-09-14T19:08:08.040Z,10.73
2022-09-14T19:18:10.368Z,6.88
2022-09-14T19:28:16.792Z,8.60
2022-09-14T19:38:20.913Z,6.95
2022-09-14T19:48:24.618Z,17.95
2022-09-14T19:58:29.060Z,7.10
2022-09-14T20:08:38.684Z,11.10
2022-09-14T20:18:43.851Z,7.18
2022-09-14T20:28:47.689Z,6.63
2022-09-14T20:39:00.976Z,16.40
2022-09-14T20:49:04.661Z,8.27
2022-09-14T20:59:09.885Z,6.45
2022-09-14T21:09:14.839Z,7.50
2022-09-14T21:19:23.099Z,7.72
2022-09-14T21:29:24.848Z,7.40
2022-09-14T21:39:27.799Z,7.13
2022-09-14T21:49:38.655Z,5.75
2022-09-14T21:59:40.721Z,5.20
2022-09-14T22:09:42.425Z,5.63
2022-09-14T22:19:50.420Z,5.38
2022-09-14T22:29:54.097Z,5.80
2022-09-14T22:40:00.798Z,5.72
2022-09-14T22:50:02.553Z,4.80
2022-09-14T23:00:13.603Z,4.10
2022-09-14T23:10:15.428Z,3.43
2022-09-14T23:20:19.267Z,3.50
2022-09-14T23:30:20.911Z,2.67
2022-09-14T23:40:23.913Z,4.45
2022-09-14T23:50:28.649Z,6.53
